Terminal Aerodrome Forecast
Issued by NWS Binghamton, NY

Home | Current Version | Previous Version | Text Only | Print | Product List | Glossary On
Versions: 1 2 3 4 5 6 7 8 9 10 11 12 13 14 15 16 17
000
FTUS41 KBGM 041120
TAFBGM
TAF
KBGM 041120Z 0412/0512 16006KT P6SM FEW100
     FM041500 22010G20KT P6SM FEW080
     FM050400 23006KT P6SM OVC050
      TEMPO 0507/0511 -SHRA=

USA.gov is the U.S. government's official web portal to all federal, state and local government web resources and services.